Time;durP1;ratioP1;P1;durP2;ratioP2;P2;SDS_P1;SDS_P2;PMS_P1;PMS_P2;Temp;Humidity;BMP_temperature;BMP_pressure;BME280_temperature;BME280_humidity;BME280_pressure;Samples;Min_cycle;Max_cycle;Signal;HPM_P1;HPM_P2
2022/09/05 00:01:55;;;;;;;6.22;3.08;;;19.90;92.90;;;;;;5053944;28;20139;-86
2022/09/05 00:04:41;;;;;;;4.28;3.20;;;19.80;93.00;;;;;;5042392;28;20045;-86
2022/09/05 00:07:28;;;;;;;5.70;3.40;;;19.80;93.10;;;;;;5041116;28;20480;-86
2022/09/05 00:10:25;;;;;;;5.38;3.17;;;19.80;93.10;;;;;;5028704;28;20036;-86
2022/09/05 00:12:54;;;;;;;5.03;3.42;;;19.80;93.20;;;;;;5048733;28;20535;-86
2022/09/05 00:15:38;;;;;;;4.65;3.55;;;19.70;93.20;;;;;;5054870;28;20051;-86
2022/09/05 00:18:26;;;;;;;4.43;3.65;;;19.70;93.40;;;;;;5029714;28;20047;-86
2022/09/05 00:21:36;;;;;;;6.82;3.80;;;19.60;93.50;;;;;;5061604;28;20421;-86
2022/09/05 00:24:08;;;;;;;9.40;4.00;;;19.60;93.60;;;;;;5008636;28;20545;-86
2022/09/05 00:26:47;;;;;;;5.00;3.75;;;19.50;93.50;;;;;;5047610;28;20036;-86
2022/09/05 00:29:31;;;;;;;6.65;3.72;;;19.50;93.60;;;;;;5060592;28;20040;-86
2022/09/05 00:32:27;;;;;;;4.72;4.05;;;19.50;93.60;;;;;;5042609;28;20094;-86
2022/09/05 00:35:01;;;;;;;5.40;4.53;;;19.40;93.60;;;;;;5040503;28;20056;-86
2022/09/05 00:37:35;;;;;;;5.35;3.95;;;19.40;93.60;;;;;;5059314;28;20071;-86
2022/09/05 00:40:25;;;;;;;4.80;4.00;;;19.30;93.70;;;;;;5065870;28;20064;-86
2022/09/05 00:42:59;;;;;;;10.18;4.15;;;19.30;93.80;;;;;;5063335;28;20036;-86
2022/09/05 00:46:02;;;;;;;4.38;3.72;;;19.30;93.80;;;;;;5055972;28;20146;-86
2022/09/05 00:48:36;;;;;;;7.80;3.50;;;19.30;94.40;;;;;;5045139;28;20476;-86
2022/09/05 00:51:26;;;;;;;6.25;3.95;;;19.20;94.00;;;;;;5059325;28;20489;-86
2022/09/05 00:54:22;;;;;;;4.28;3.85;;;19.20;93.90;;;;;;5035867;28;20396;-86
2022/09/05 00:57:07;;;;;;;7.03;4.20;;;19.20;94.00;;;;;;5048250;28;20523;-86
2022/09/05 00:59:59;;;;;;;7.68;4.43;;;19.10;93.90;;;;;;5031574;28;20080;-85
2022/09/05 01:02:44;;;;;;;6.20;4.63;;;19.20;94.00;;;;;;5035490;28;20546;-86
2022/09/05 01:05:27;;;;;;;8.20;4.72;;;19.20;94.00;;;;;;5037108;28;20064;-85
2022/09/05 01:08:14;;;;;;;5.15;4.65;;;19.10;94.20;;;;;;5044738;28;20029;-85
2022/09/05 01:10:55;;;;;;;6.60;4.47;;;19.10;94.20;;;;;;5033811;28;20488;-85
2022/09/05 01:13:55;;;;;;;5.55;4.38;;;19.00;94.10;;;;;;5049824;28;20055;-86
2022/09/05 01:16:42;;;;;;;5.85;4.50;;;19.00;94.10;;;;;;5057331;28;20491;-86
2022/09/05 01:19:10;;;;;;;6.57;4.78;;;19.00;94.20;;;;;;5031343;28;20041;-86
2022/09/05 01:21:54;;;;;;;6.03;4.97;;;18.90;94.30;;;;;;5034789;28;20539;-84
2022/09/05 01:24:51;;;;;;;7.05;4.70;;;19.00;94.30;;;;;;5045226;28;20499;-86
2022/09/05 01:27:32;;;;;;;6.10;4.57;;;18.90;94.40;;;;;;5029949;28;20044;-86
2022/09/05 01:30:13;;;;;;;6.00;4.72;;;18.90;94.50;;;;;;5060400;28;20123;-86
2022/09/05 01:32:49;;;;;;;4.88;4.35;;;18.80;94.60;;;;;;5062098;28;20040;-86
2022/09/05 01:35:26;;;;;;;8.25;4.80;;;18.80;94.70;;;;;;5048954;28;20061;-86
2022/09/05 01:38:07;;;;;;;8.75;4.85;;;18.80;94.70;;;;;;5066062;28;20047;-86
2022/09/05 01:40:55;;;;;;;6.03;4.88;;;18.70;94.80;;;;;;5030666;28;20125;-85
2022/09/05 01:43:41;;;;;;;7.53;4.63;;;18.70;95.10;;;;;;5029105;28;20439;-85
2022/09/05 01:46:25;;;;;;;5.20;4.47;;;18.70;95.20;;;;;;5058334;28;20054;-86
2022/09/05 01:49:01;;;;;;;5.50;4.60;;;18.60;95.30;;;;;;5064749;28;20128;-85
2022/09/05 01:51:37;;;;;;;5.03;4.55;;;18.60;95.20;;;;;;5038355;28;20123;-86
2022/09/05 01:54:09;;;;;;;;;;;18.60;95.30;;;;;;5059456;28;20047;-86
2022/09/05 01:57:14;;;;;;;5.75;5.25;;;18.50;95.30;;;;;;5067078;28;19999;-86
2022/09/05 01:59:55;;;;;;;8.57;5.22;;;18.50;95.20;;;;;;5053697;28;20119;-86
2022/09/05 02:02:33;;;;;;;5.60;4.82;;;18.50;95.40;;;;;;5055932;28;20102;-86
2022/09/05 02:05:31;;;;;;;5.85;4.80;;;18.50;95.40;;;;;;5039613;28;20040;-86
2022/09/05 02:08:28;;;;;;;6.72;4.82;;;18.40;95.80;;;;;;5039249;28;20041;-86
2022/09/05 02:11:07;;;;;;;6.20;5.60;;;18.40;95.70;;;;;;5052002;28;20040;-85
2022/09/05 02:13:32;;;;;;;5.57;5.07;;;18.40;95.70;;;;;;5056566;28;20090;-84
2022/09/05 02:16:22;;;;;;;8.60;5.10;;;18.40;95.80;;;;;;5051734;28;20501;-85
2022/09/05 02:19:13;;;;;;;8.73;5.07;;;18.30;95.90;;;;;;5054156;28;20196;-86
2022/09/05 02:22:14;;;;;;;7.53;5.20;;;18.30;96.10;;;;;;5055000;28;20492;-85
2022/09/05 02:24:46;;;;;;;6.50;5.20;;;18.20;96.30;;;;;;5051061;28;20488;-88
2022/09/05 02:27:49;;;;;;;6.80;5.45;;;18.10;96.20;;;;;;5052389;28;20570;-86
2022/09/05 02:30:19;;;;;;;6.47;5.55;;;18.20;96.30;;;;;;5048778;28;20040;-86
2022/09/05 02:33:09;;;;;;;5.97;5.05;;;18.10;96.40;;;;;;5049854;28;20044;-84
2022/09/05 02:36:06;;;;;;;6.25;5.22;;;18.10;96.60;;;;;;5049134;28;20039;-85
2022/09/05 02:39:13;;;;;;;9.68;5.72;;;18.10;96.60;;;;;;5048366;28;20398;-85
2022/09/05 02:42:12;;;;;;;5.95;5.35;;;18.00;96.80;;;;;;5054617;28;20044;-86
2022/09/05 02:45:12;;;;;;;6.45;5.38;;;18.00;96.80;;;;;;5057351;28;20072;-85
2022/09/05 02:47:48;;;;;;;9.20;5.63;;;17.90;96.90;;;;;;5046694;28;20032;-85
2022/09/05 02:50:37;;;;;;;6.75;5.35;;;17.90;96.90;;;;;;5041459;28;20044;-85
2022/09/05 02:53:06;;;;;;;6.53;5.53;;;17.90;97.20;;;;;;5033379;28;20056;-86
2022/09/05 02:56:10;;;;;;;6.93;5.50;;;17.80;97.10;;;;;;5059510;28;20459;-85
2022/09/05 02:58:47;;;;;;;6.43;5.75;;;17.90;97.40;;;;;;5033074;28;20556;-86
2022/09/05 03:01:39;;;;;;;6.35;5.57;;;17.80;97.40;;;;;;5043276;28;20044;-86
2022/09/05 03:04:22;;;;;;;6.82;5.20;;;17.80;97.70;;;;;;5042163;28;20048;-86
2022/09/05 03:07:04;;;;;;;5.75;5.25;;;17.70;97.70;;;;;;5062468;28;20051;-86
2022/09/05 03:10:02;;;;;;;6.68;5.80;;;17.70;97.90;;;;;;5063133;28;20043;-86
2022/09/05 03:13:16;;;;;;;7.82;6.05;;;17.70;97.80;;;;;;5057387;28;20388;-86
2022/09/05 03:16:13;;;;;;;6.63;5.47;;;17.70;98.10;;;;;;5027227;28;20056;-87
2022/09/05 03:19:05;;;;;;;7.10;6.43;;;17.70;98.20;;;;;;5050575;28;20091;-85
2022/09/05 03:21:48;;;;;;;7.53;6.80;;;17.60;98.50;;;;;;5042847;28;20040;-86
2022/09/05 03:24:51;;;;;;;7.15;6.45;;;17.60;98.40;;;;;;5048053;28;20053;-87
2022/09/05 03:27:35;;;;;;;9.52;6.60;;;17.60;98.70;;;;;;5047980;28;20043;-85
2022/09/05 03:30:18;;;;;;;6.82;5.97;;;17.50;98.60;;;;;;5035914;28;20086;-86
2022/09/05 03:33:26;;;;;;;8.65;6.68;;;17.50;98.80;;;;;;5043487;28;20042;-83
2022/09/05 03:36:03;;;;;;;9.18;6.78;;;17.50;99.00;;;;;;5041541;28;20786;-86
2022/09/05 03:38:53;;;;;;;10.57;7.28;;;17.50;99.10;;;;;;5042240;28;20086;-86
2022/09/05 03:41:37;;;;;;;8.00;7.13;;;17.50;99.10;;;;;;5062438;28;20044;-86
2022/09/05 03:44:22;;;;;;;9.65;7.53;;;17.40;99.50;;;;;;5039080;28;20056;-86
2022/09/05 03:46:53;;;;;;;9.50;6.97;;;17.40;99.50;;;;;;5066171;28;20501;-83
2022/09/05 03:49:44;;;;;;;8.65;7.25;;;17.50;99.40;;;;;;5036076;28;20511;-84
2022/09/05 03:52:48;;;;;;;8.25;7.47;;;17.40;99.50;;;;;;5035837;28;20041;-86
2022/09/05 03:55:17;;;;;;;11.27;7.75;;;17.40;99.80;;;;;;4980364;28;20141;-86
2022/09/05 03:58:01;;;;;;;9.68;8.45;;;17.30;99.80;;;;;;5033523;28;20052;-87
2022/09/05 04:00:32;;;;;;;8.77;7.88;;;17.10;99.60;;;;;;5047962;28;20041;-86
2022/09/05 04:03:10;;;;;;;9.75;8.02;;;17.40;99.90;;;;;;5053326;28;20036;-86
2022/09/05 04:05:40;;;;;;;9.20;7.88;;;17.30;99.90;;;;;;5059411;28;20040;-86
2022/09/05 04:08:12;;;;;;;10.55;8.25;;;17.30;99.90;;;;;;5068920;28;20089;-86
2022/09/05 04:10:44;;;;;;;9.23;8.25;;;17.30;99.90;;;;;;5052972;28;20058;-86
2022/09/05 04:13:27;;;;;;;8.60;7.75;;;17.30;99.90;;;;;;5046545;28;20040;-86
2022/09/05 04:16:11;;;;;;;10.60;8.20;;;17.20;99.90;;;;;;5056115;28;20036;-86
2022/09/05 04:18:43;;;;;;;9.80;8.15;;;17.20;99.90;;;;;;5056362;28;20028;-87
2022/09/05 04:21:34;;;;;;;9.73;8.23;;;17.20;99.90;;;;;;5040412;28;20043;-87
2022/09/05 04:24:15;;;;;;;11.68;7.82;;;17.20;99.90;;;;;;5049401;28;20039;-86
2022/09/05 04:26:47;;;;;;;9.70;8.73;;;17.20;99.90;;;;;;5053648;28;20084;-85
2022/09/05 04:29:50;;;;;;;9.48;8.45;;;17.20;99.90;;;;;;5058197;28;20119;-86
2022/09/05 04:32:22;;;;;;;12.60;8.88;;;17.20;99.90;;;;;;5030279;28;20037;-86
2022/09/05 04:35:13;;;;;;;12.88;9.00;;;17.20;99.90;;;;;;5036065;28;20063;-86
2022/09/05 04:37:58;;;;;;;11.52;8.88;;;17.20;99.90;;;;;;5044212;28;20462;-86
2022/09/05 04:40:35;;;;;;;9.32;8.32;;;17.20;99.90;;;;;;5050369;28;20048;-86
2022/09/05 04:43:06;;;;;;;12.60;8.90;;;17.20;99.90;;;;;;5044491;28;20055;-86
2022/09/05 04:45:44;;;;;;;10.60;9.50;;;17.10;99.90;;;;;;5049545;28;20068;-86
2022/09/05 04:48:15;;;;;;;11.07;9.32;;;17.20;99.90;;;;;;5029082;28;20036;-86
2022/09/05 04:51:39;;;;;;;10.95;9.73;;;17.20;99.90;;;;;;5016563;28;20111;-86
2022/09/05 04:54:28;;;;;;;12.70;9.90;;;17.10;99.90;;;;;;4974342;28;20058;-85
2022/09/05 04:57:06;;;;;;;11.52;10.32;;;17.10;99.90;;;;;;5011312;28;20400;-85
2022/09/05 04:59:40;;;;;;;12.77;11.07;;;17.10;99.90;;;;;;5007200;28;20052;-83
2022/09/05 05:02:43;;;;;;;12.23;10.93;;;17.10;99.90;;;;;;5010751;28;20040;-85
2022/09/05 05:05:20;;;;;;;12.85;11.55;;;17.10;99.90;;;;;;5019089;28;20407;-85
2022/09/05 05:08:13;;;;;;;16.08;12.82;;;17.10;99.90;;;;;;5016985;28;20497;-85
2022/09/05 05:10:56;;;;;;;14.30;12.40;;;17.10;99.90;;;;;;5032791;28;20041;-86
2022/09/05 05:13:47;;;;;;;13.75;11.90;;;17.00;99.90;;;;;;5037930;28;20477;-85
2022/09/05 05:16:22;;;;;;;14.27;12.63;;;17.00;99.90;;;;;;5038330;28;20127;-86
2022/09/05 05:18:49;;;;;;;13.68;12.25;;;17.00;99.90;;;;;;5028385;28;20079;-84
2022/09/05 05:21:21;;;;;;;15.23;12.70;;;16.90;99.90;;;;;;5015125;28;20119;-86
2022/09/05 05:23:52;;;;;;;15.88;12.73;;;17.00;99.90;;;;;;5034475;28;20072;-84
2022/09/05 05:26:39;;;;;;;13.73;12.07;;;16.90;99.90;;;;;;5037945;28;20037;-85
2022/09/05 05:29:17;;;;;;;13.50;12.02;;;16.90;99.90;;;;;;5038147;28;20051;-86
2022/09/05 05:31:51;;;;;;;15.60;11.63;;;16.90;99.90;;;;;;5012459;28;20071;-87
2022/09/05 05:34:23;;;;;;;13.57;11.50;;;16.90;99.90;;;;;;5045112;28;20105;-86
2022/09/05 05:37:05;;;;;;;14.70;11.18;;;16.90;99.90;;;;;;5026421;28;20068;-87
2022/09/05 05:39:34;;;;;;;16.98;11.35;;;16.90;99.90;;;;;;5044601;28;20052;-86
2022/09/05 05:42:01;;;;;;;12.32;10.93;;;16.90;99.90;;;;;;5022761;28;20411;-85
2022/09/05 05:44:29;;;;;;;13.85;10.73;;;16.90;99.90;;;;;;5002523;28;20081;-86
2022/09/05 05:47:14;;;;;;;14.48;10.93;;;16.90;99.90;;;;;;5044227;28;20039;-86
2022/09/05 05:49:55;;;;;;;16.48;11.13;;;16.90;99.90;;;;;;5033966;28;20046;-86
2022/09/05 05:52:56;;;;;;;16.25;11.23;;;16.90;99.90;;;;;;5057230;28;20090;-86
2022/09/05 05:56:00;;;;;;;15.80;11.30;;;16.90;99.90;;;;;;5057173;28;20592;-86
2022/09/05 05:58:44;;;;;;;17.98;11.90;;;16.90;99.90;;;;;;4965009;28;20050;-84
2022/09/05 06:01:22;;;;;;;24.33;11.38;;;16.90;99.90;;;;;;4973804;28;21911;-86
2022/09/05 06:04:07;;;;;;;25.48;12.07;;;16.90;99.90;;;;;;5030632;28;20475;-86
2022/09/05 06:07:03;;;;;;;16.17;11.23;;;16.90;99.90;;;;;;5038265;28;20439;-87
2022/09/05 06:09:42;;;;;;;;;;;16.90;99.90;;;;;;5047681;28;20391;-86
2022/09/05 06:12:16;;;;;;;11.30;10.05;;;16.90;99.90;;;;;;5048646;28;19915;-87
2022/09/05 06:15:32;;;;;;;12.65;11.20;;;16.90;99.90;;;;;;5039898;28;20044;-86
2022/09/05 06:18:17;;;;;;;15.88;10.85;;;17.00;99.90;;;;;;5010152;28;20048;-87
2022/09/05 06:21:25;;;;;;;12.43;10.02;;;17.00;99.90;;;;;;5041440;28;20036;-87
2022/09/05 06:24:09;;;;;;;;;;;17.10;99.90;;;;;;5035700;28;20051;-86
2022/09/05 06:27:06;;;;;;;13.48;10.65;;;17.10;99.90;;;;;;5042247;28;19917;-87
2022/09/05 06:29:48;;;;;;;12.23;10.05;;;17.20;99.90;;;;;;4993024;28;20052;-88
2022/09/05 06:32:23;;;;;;;17.05;10.25;;;17.20;99.90;;;;;;5049119;28;20041;-85
2022/09/05 06:34:52;;;;;;;15.38;10.85;;;17.30;99.90;;;;;;5060445;28;20042;-87
2022/09/05 06:37:44;;;;;;;12.07;10.85;;;17.30;99.90;;;;;;5059832;28;20514;-86
2022/09/05 06:40:24;;;;;;;10.68;9.60;;;17.40;99.90;;;;;;5048763;28;20076;-85
2022/09/05 06:43:09;;;;;;;12.57;9.88;;;17.40;99.90;;;;;;5052964;28;20041;-86
2022/09/05 06:45:56;;;;;;;17.02;10.10;;;17.50;99.90;;;;;;5042472;28;20056;-86
2022/09/05 06:48:32;;;;;;;10.73;9.60;;;17.50;99.90;;;;;;5053923;28;20044;-85
2022/09/05 06:51:28;;;;;;;14.10;9.90;;;17.60;99.90;;;;;;5055104;28;20033;-86
2022/09/05 06:54:11;;;;;;;11.67;9.43;;;17.70;99.90;;;;;;5038194;28;20041;-85
2022/09/05 06:56:44;;;;;;;49.63;11.68;;;17.80;99.90;;;;;;5056823;28;20063;-85
2022/09/05 06:59:42;;;;;;;29.70;11.23;;;17.90;99.90;;;;;;5044803;28;20044;-85
2022/09/05 07:03:00;;;;;;;11.95;9.68;;;18.10;99.90;;;;;;5059604;28;20174;-85
2022/09/05 07:05:49;;;;;;;12.05;9.88;;;18.30;99.90;;;;;;5004597;28;20053;-87
2022/09/05 07:08:17;;;;;;;10.40;8.98;;;18.70;99.90;;;;;;5015068;28;20045;-85
2022/09/05 07:10:55;;;;;;;15.32;9.20;;;19.10;99.90;;;;;;5048137;28;20037;-86
2022/09/05 07:13:37;;;;;;;13.80;9.43;;;19.50;99.90;;;;;;5040470;28;20053;-86
2022/09/05 07:16:26;;;;;;;13.82;8.45;;;19.80;99.90;;;;;;5040091;28;20045;-87
2022/09/05 07:19:03;;;;;;;9.88;7.95;;;20.10;99.90;;;;;;5017354;28;20056;-85
2022/09/05 07:21:51;;;;;;;32.50;10.65;;;20.40;99.90;;;;;;5022593;28;20101;-86
2022/09/05 07:24:21;;;;;;;10.63;7.72;;;20.60;99.90;;;;;;5021336;28;20123;-86
2022/09/05 07:26:48;;;;;;;11.00;9.07;;;20.90;99.90;;;;;;5034043;28;20041;-87
2022/09/05 07:29:43;;;;;;;10.05;8.70;;;21.10;99.90;;;;;;5024802;28;20045;-86
2022/09/05 07:32:16;;;;;;;11.93;8.20;;;21.20;99.90;;;;;;5035408;28;20496;-85
2022/09/05 07:34:46;;;;;;;14.50;9.63;;;21.50;99.90;;;;;;5055637;28;20079;-84
2022/09/05 07:37:34;;;;;;;11.48;8.63;;;21.70;99.50;;;;;;5042757;28;20041;-84
2022/09/05 07:40:08;;;;;;;10.70;8.88;;;21.80;99.00;;;;;;5012168;28;20044;-86
2022/09/05 07:42:52;;;;;;;15.50;8.95;;;21.90;98.80;;;;;;5026976;28;20047;-85
2022/09/05 07:45:28;;;;;;;9.55;8.55;;;22.00;98.30;;;;;;5038197;28;20052;-85
2022/09/05 07:47:59;;;;;;;10.40;9.13;;;22.10;98.50;;;;;;5051555;28;20033;-85
2022/09/05 07:50:26;;;;;;;9.07;8.07;;;22.20;98.60;;;;;;5049230;28;20800;-86
2022/09/05 07:52:56;;;;;;;10.15;8.20;;;22.30;98.40;;;;;;5052098;28;20037;-88
2022/09/05 07:55:34;;;;;;;11.13;8.40;;;22.30;98.50;;;;;;5046189;28;20049;-85
2022/09/05 07:58:11;;;;;;;10.45;8.43;;;22.40;98.60;;;;;;5041075;28;20045;-88
2022/09/05 08:00:37;;;;;;;14.38;8.82;;;22.50;98.10;;;;;;5075633;28;20040;-86
2022/09/05 08:03:13;;;;;;;11.77;9.15;;;22.50;97.90;;;;;;5030194;28;20118;-86
2022/09/05 08:05:41;;;;;;;;;;;22.60;98.00;;;;;;5053420;28;20051;-85
2022/09/05 08:08:15;;;;;;;16.42;8.95;;;22.60;97.60;;;;;;5052691;28;20392;-88
2022/09/05 08:10:50;;;;;;;11.65;9.13;;;22.60;97.90;;;;;;5039440;28;20071;-86
2022/09/05 08:13:20;;;;;;;11.18;8.18;;;22.60;97.60;;;;;;5058927;28;20125;-86
2022/09/05 08:15:50;;;;;;;11.20;8.48;;;22.60;98.00;;;;;;5053328;28;20036;-86
2022/09/05 08:18:45;;;;;;;13.18;8.85;;;22.60;98.10;;;;;;5048015;28;20370;-86
2022/09/05 08:21:42;;;;;;;11.73;9.15;;;22.60;98.20;;;;;;5044776;28;20045;-85
2022/09/05 08:24:23;;;;;;;12.05;8.52;;;22.60;98.00;;;;;;5041834;28;20044;-86
2022/09/05 08:27:20;;;;;;;10.18;8.00;;;22.60;98.20;;;;;;5049321;28;20032;-87
2022/09/05 08:29:52;;;;;;;12.52;9.10;;;22.60;98.30;;;;;;5055326;28;20044;-86
2022/09/05 08:32:41;;;;;;;11.55;9.63;;;22.60;98.30;;;;;;5038770;28;20457;-86
2022/09/05 08:35:13;;;;;;;10.55;8.02;;;22.60;98.10;;;;;;5052886;28;20040;-85
2022/09/05 08:37:41;;;;;;;13.88;8.88;;;22.60;98.40;;;;;;5040580;28;20458;-81
2022/09/05 08:40:21;;;;;;;10.68;8.63;;;22.60;98.60;;;;;;5024241;28;20044;-85
2022/09/05 08:42:52;;;;;;;11.93;8.23;;;22.60;98.70;;;;;;5043305;28;20039;-86
2022/09/05 08:46:00;;;;;;;11.95;7.95;;;22.70;98.80;;;;;;5064015;28;20067;-86
2022/09/05 08:48:53;;;;;;;12.45;8.75;;;22.80;98.80;;;;;;5042173;28;20025;-87
2022/09/05 08:51:50;;;;;;;10.43;7.75;;;22.80;98.80;;;;;;5044971;28;20063;-85
2022/09/05 08:54:16;;;;;;;15.23;7.80;;;22.90;99.10;;;;;;5032091;28;20068;-84
2022/09/05 08:56:52;;;;;;;10.10;8.13;;;23.00;99.20;;;;;;5045094;28;20047;-86
2022/09/05 08:59:47;;;;;;;10.52;7.78;;;23.00;98.70;;;;;;5054516;28;20078;-84
2022/09/05 09:02:22;;;;;;;10.90;7.70;;;23.10;98.40;;;;;;5034061;28;20185;-84
2022/09/05 09:05:05;;;;;;;8.35;6.65;;;23.10;98.20;;;;;;5043679;28;20045;-85
2022/09/05 09:07:42;;;;;;;9.15;7.30;;;23.20;98.50;;;;;;5039413;28;20484;-84
2022/09/05 09:10:36;;;;;;;13.25;7.90;;;23.20;98.60;;;;;;5041411;28;20040;-84
2022/09/05 09:13:14;;;;;;;10.88;7.00;;;23.20;97.90;;;;;;5022387;28;20045;-84
2022/09/05 09:16:03;;;;;;;8.75;6.18;;;23.30;97.90;;;;;;5043230;28;20123;-85
2022/09/05 09:18:56;;;;;;;12.55;7.40;;;23.30;98.30;;;;;;5053968;28;20076;-85
2022/09/05 09:21:53;;;;;;;11.23;7.93;;;23.30;98.30;;;;;;5058576;28;20401;-84
2022/09/05 09:24:43;;;;;;;9.35;6.75;;;23.40;98.10;;;;;;5055317;28;20070;-84
2022/09/05 09:27:29;;;;;;;13.35;5.78;;;23.50;98.00;;;;;;5061332;28;20101;-83
2022/09/05 09:30:02;;;;;;;10.52;5.90;;;23.50;97.70;;;;;;5061592;28;20097;-83
2022/09/05 09:32:29;;;;;;;10.55;5.80;;;23.60;97.30;;;;;;5057096;28;20094;-83
2022/09/05 09:35:16;;;;;;;7.22;5.28;;;23.70;97.00;;;;;;5053295;28;20044;-84
2022/09/05 09:38:00;;;;;;;9.60;4.50;;;23.80;97.10;;;;;;5029938;28;20051;-84
2022/09/05 09:40:48;;;;;;;6.00;4.38;;;23.90;96.60;;;;;;5034957;28;20040;-82
2022/09/05 09:43:52;;;;;;;8.02;4.10;;;23.90;96.20;;;;;;5067354;28;20131;-82
2022/09/05 09:46:33;;;;;;;7.40;4.30;;;24.00;96.10;;;;;;4952272;28;20196;-82
2022/09/05 09:49:06;;;;;;;6.53;4.45;;;24.00;96.20;;;;;;5001505;28;20045;-82
2022/09/05 09:51:50;;;;;;;6.05;4.40;;;24.10;95.70;;;;;;5041856;28;20095;-82
2022/09/05 09:54:31;;;;;;;8.90;4.53;;;24.20;95.90;;;;;;5038670;28;20135;-81
2022/09/05 09:57:36;;;;;;;9.35;4.88;;;24.20;95.60;;;;;;5013951;28;20072;-82
2022/09/05 10:00:39;;;;;;;7.05;4.03;;;24.30;95.20;;;;;;5047958;28;20051;-81
2022/09/05 10:03:33;;;;;;;5.93;4.30;;;24.30;95.30;;;;;;5030605;28;20072;-81
2022/09/05 10:06:42;;;;;;;4.75;4.20;;;24.30;95.20;;;;;;5041970;28;20048;-83
2022/09/05 10:09:29;;;;;;;6.82;4.07;;;24.50;94.60;;;;;;5001660;28;20049;-82
2022/09/05 10:12:20;;;;;;;6.07;4.20;;;24.50;95.00;;;;;;5025186;28;20060;-83
2022/09/05 10:14:57;;;;;;;6.93;3.70;;;24.60;95.10;;;;;;5016644;28;20128;-82
2022/09/05 10:17:40;;;;;;;11.95;2.70;;;24.60;95.10;;;;;;5027264;28;20075;-82
2022/09/05 10:20:18;;;;;;;4.88;2.80;;;24.70;94.50;;;;;;5016862;28;20075;-82
2022/09/05 10:23:21;;;;;;;5.95;2.97;;;24.80;94.50;;;;;;5037005;28;20504;-82
2022/09/05 10:26:11;;;;;;;4.15;3.20;;;24.80;94.40;;;;;;5025635;28;20481;-82
2022/09/05 10:28:46;;;;;;;7.57;3.25;;;24.90;94.30;;;;;;5015266;28;20554;-82
2022/09/05 10:31:18;;;;;;;4.68;3.03;;;24.90;94.20;;;;;;5037587;28;20080;-83
2022/09/05 10:33:56;;;;;;;5.82;3.47;;;25.00;94.00;;;;;;5019408;28;20039;-82
2022/09/05 10:36:30;;;;;;;4.15;3.33;;;25.00;93.40;;;;;;5022907;28;20033;-83
2022/09/05 10:39:12;;;;;;;6.80;3.35;;;25.10;93.40;;;;;;5020479;28;20500;-84
2022/09/05 10:41:49;;;;;;;3.65;3.03;;;25.10;93.50;;;;;;5031046;28;20094;-85
2022/09/05 10:44:30;;;;;;;4.75;2.92;;;25.10;93.40;;;;;;5028025;28;20052;-85
2022/09/05 10:47:04;;;;;;;6.00;2.78;;;25.10;93.40;;;;;;5033155;28;20068;-84
2022/09/05 10:49:37;;;;;;;6.05;3.10;;;25.20;93.30;;;;;;5056935;28;20377;-85
2022/09/05 10:52:31;;;;;;;6.47;2.72;;;25.20;93.20;;;;;;5053340;28;20096;-85
2022/09/05 10:55:34;;;;;;;3.58;2.70;;;25.20;93.10;;;;;;5052188;28;20112;-86
2022/09/05 10:58:22;;;;;;;5.53;2.50;;;25.30;93.20;;;;;;5043232;28;20044;-84
2022/09/05 11:00:58;;;;;;;3.85;2.40;;;25.40;93.20;;;;;;5053451;28;20071;-85
2022/09/05 11:03:35;;;;;;;4.20;2.22;;;25.50;93.00;;;;;;5040562;28;20078;-86
2022/09/05 11:06:08;;;;;;;4.03;2.33;;;25.50;92.20;;;;;;5032153;28;20059;-83
2022/09/05 11:08:58;;;;;;;3.92;2.70;;;25.60;92.00;;;;;;5042340;28;20040;-84
2022/09/05 11:11:26;;;;;;;3.65;2.20;;;25.70;91.70;;;;;;5058033;28;20041;-84
2022/09/05 11:13:57;;;;;;;3.63;2.30;;;25.70;91.30;;;;;;5042001;28;20098;-84
2022/09/05 11:16:43;;;;;;;4.32;2.42;;;25.70;91.00;;;;;;5023798;28;20123;-81
2022/09/05 11:19:40;;;;;;;2.80;2.28;;;25.80;90.90;;;;;;5059776;28;20125;-81
2022/09/05 11:22:06;;;;;;;4.00;2.50;;;25.80;90.80;;;;;;5036354;28;20115;-81
2022/09/05 11:24:45;;;;;;;2.92;2.50;;;25.90;90.30;;;;;;5012042;28;20125;-81
2022/09/05 11:27:31;;;;;;;6.15;2.78;;;26.00;90.20;;;;;;5051149;28;20037;-81
2022/09/05 11:30:29;;;;;;;4.88;2.65;;;26.00;90.30;;;;;;5032192;28;20029;-81
2022/09/05 11:33:21;;;;;;;4.53;2.70;;;26.00;90.40;;;;;;5046094;28;20047;-81
2022/09/05 11:35:56;;;;;;;4.50;2.67;;;26.00;90.40;;;;;;5043970;28;20049;-81
2022/09/05 11:38:48;;;;;;;4.10;2.40;;;26.10;90.10;;;;;;5053407;28;20040;-81
2022/09/05 11:41:41;;;;;;;4.82;2.53;;;26.20;89.50;;;;;;5046749;28;20048;-81
2022/09/05 11:44:47;;;;;;;3.05;2.30;;;26.20;89.30;;;;;;5041829;28;20512;-81
2022/09/05 11:47:38;;;;;;;4.77;2.23;;;26.30;89.60;;;;;;5063580;28;20040;-81
2022/09/05 11:50:42;;;;;;;3.22;2.20;;;26.30;87.00;;;;;;5067703;28;20279;-82
2022/09/05 11:53:39;;;;;;;3.03;2.20;;;26.40;85.80;;;;;;5041574;28;20515;-82
2022/09/05 11:56:17;;;;;;;3.33;2.08;;;26.40;87.00;;;;;;5051076;28;20063;-82
2022/09/05 11:58:56;;;;;;;4.78;2.55;;;26.40;86.30;;;;;;5053741;28;20503;-81
2022/09/05 12:01:42;;;;;;;5.43;2.33;;;26.50;85.60;;;;;;5040170;28;20036;-81
2022/09/05 12:04:42;;;;;;;3.65;2.55;;;26.60;85.40;;;;;;5062635;28;20045;-81
2022/09/05 12:07:34;;;;;;;3.85;2.70;;;26.60;86.30;;;;;;5052696;28;20035;-82
2022/09/05 12:10:25;;;;;;;4.63;2.45;;;26.70;86.20;;;;;;5048038;28;20044;-82
2022/09/05 12:13:15;;;;;;;4.93;2.70;;;26.70;86.20;;;;;;5039864;28;20037;-82
2022/09/05 12:15:45;;;;;;;2.50;2.10;;;26.60;86.30;;;;;;5052710;28;20167;-82
2022/09/05 12:18:31;;;;;;;2.88;2.17;;;26.60;85.40;;;;;;5057095;28;20506;-81
2022/09/05 12:20:57;;;;;;;6.32;2.40;;;26.60;85.40;;;;;;5066227;28;20083;-82
2022/09/05 12:23:42;;;;;;;3.05;2.13;;;26.70;86.00;;;;;;5052329;28;20036;-81
2022/09/05 12:26:16;;;;;;;3.58;2.20;;;26.80;85.90;;;;;;5055453;28;20055;-81
2022/09/05 12:28:57;;;;;;;4.18;2.10;;;26.90;86.40;;;;;;5023715;28;20124;-82
2022/09/05 12:31:33;;;;;;;5.05;2.40;;;26.90;86.20;;;;;;5050438;28;20719;-81
2022/09/05 12:34:02;;;;;;;5.40;2.30;;;26.90;86.50;;;;;;5045336;28;20044;-82
2022/09/05 12:36:48;;;;;;;3.13;2.08;;;27.00;84.80;;;;;;5027558;28;20048;-82
2022/09/05 12:39:43;;;;;;;4.60;2.35;;;27.00;84.50;;;;;;5030445;28;20735;-81
2022/09/05 12:42:18;;;;;;;2.83;2.40;;;27.10;84.90;;;;;;5040076;28;20060;-83
2022/09/05 12:45:07;;;;;;;3.22;2.35;;;27.00;84.60;;;;;;5052555;28;20090;-81
2022/09/05 12:47:52;;;;;;;4.28;2.33;;;27.10;84.00;;;;;;5030643;28;20044;-81
2022/09/05 12:50:21;;;;;;;4.07;1.90;;;27.00;84.60;;;;;;5047667;28;20092;-80
2022/09/05 12:53:04;;;;;;;3.15;2.17;;;27.00;84.50;;;;;;5037781;28;20037;-81
2022/09/05 12:55:58;;;;;;;4.22;2.65;;;27.00;83.90;;;;;;5043710;28;20549;-81
2022/09/05 12:58:30;;;;;;;4.03;2.22;;;27.00;84.40;;;;;;5044283;28;20051;-81
2022/09/05 13:01:17;;;;;;;2.60;2.40;;;27.00;84.70;;;;;;5050533;28;20047;-81
2022/09/05 13:03:55;;;;;;;3.28;2.13;;;27.10;85.10;;;;;;5046478;28;20640;-81
2022/09/05 13:06:23;;;;;;;4.43;2.22;;;27.10;84.60;;;;;;5041012;28;20039;-81
2022/09/05 13:08:56;;;;;;;3.47;2.22;;;27.30;84.90;;;;;;5038561;28;20043;-82
2022/09/05 13:11:23;;;;;;;7.15;2.28;;;27.60;84.80;;;;;;5046135;28;20115;-81
2022/09/05 13:13:59;;;;;;;4.00;2.00;;;28.10;84.90;;;;;;5049247;28;20048;-82
2022/09/05 13:16:27;;;;;;;;;;;28.50;83.00;;;;;;5040238;28;20047;-82
2022/09/05 13:19:06;;;;;;;4.63;2.38;;;29.00;82.50;;;;;;5035618;28;19927;-81
2022/09/05 13:21:39;;;;;;;2.47;1.98;;;29.70;82.40;;;;;;5061012;28;20087;-82
2022/09/05 13:24:10;;;;;;;4.53;2.40;;;30.40;81.50;;;;;;5040884;28;20036;-80
2022/09/05 13:26:45;;;;;;;3.80;2.13;;;30.90;77.90;;;;;;5049659;28;20105;-80
2022/09/05 13:29:15;;;;;;;5.17;2.23;;;31.40;75.60;;;;;;5035415;28;20052;-80
2022/09/05 13:31:41;;;;;;;4.97;2.17;;;31.90;76.60;;;;;;5044146;28;20048;-80
2022/09/05 13:34:24;;;;;;;7.10;2.20;;;32.20;73.70;;;;;;5053033;28;20093;-80
2022/09/05 13:37:02;;;;;;;4.03;2.10;;;32.30;71.50;;;;;;5041621;28;20040;-81
2022/09/05 13:39:40;;;;;;;5.25;2.20;;;32.30;72.40;;;;;;5037973;28;20048;-81
2022/09/05 13:42:09;;;;;;;4.55;1.98;;;32.20;70.90;;;;;;5056486;28;20534;-80
2022/09/05 13:44:41;;;;;;;3.42;1.83;;;32.00;71.30;;;;;;5044000;28;20128;-81
2022/09/05 13:47:32;;;;;;;3.00;2.10;;;31.70;70.10;;;;;;5042682;28;20041;-81
2022/09/05 13:50:22;;;;;;;3.45;2.00;;;31.30;68.40;;;;;;5060377;28;20331;-81
2022/09/05 13:53:15;;;;;;;4.60;1.80;;;30.80;70.20;;;;;;5085146;28;20087;-80
2022/09/05 13:55:52;;;;;;;2.42;2.00;;;30.60;71.20;;;;;;5035406;28;20533;-80
2022/09/05 13:58:32;;;;;;;4.60;1.98;;;30.40;71.10;;;;;;5045173;28;20106;-81
2022/09/05 14:01:22;;;;;;;3.45;2.25;;;30.40;71.10;;;;;;5044185;28;20088;-80
2022/09/05 14:04:13;;;;;;;4.20;2.05;;;30.30;71.00;;;;;;5049431;28;20049;-81
2022/09/05 14:07:43;;;;;;;2.75;2.20;;;30.20;71.70;;;;;;5056497;28;20040;-81